createdAt,value
2018-06-19T00:00:07.410Z,15.50
2018-06-19T00:02:35.805Z,15.50
2018-06-19T00:05:05.413Z,15.60
2018-06-19T00:07:33.880Z,15.70
2018-06-19T00:10:02.300Z,15.70
2018-06-19T00:12:30.757Z,15.70
2018-06-19T00:14:59.801Z,15.70
2018-06-19T00:17:28.226Z,15.70
2018-06-19T00:19:56.696Z,15.80
2018-06-19T00:24:53.288Z,15.80
2018-06-19T00:27:21.719Z,15.70
2018-06-19T00:29:50.160Z,15.70
2018-06-19T00:32:18.584Z,15.70
2018-06-19T00:34:47.662Z,15.70
2018-06-19T00:37:16.107Z,15.70
2018-06-19T00:39:44.583Z,15.70
2018-06-19T00:42:13.052Z,15.80
2018-06-19T00:44:41.477Z,15.80
2018-06-19T00:47:09.920Z,15.80
2018-06-19T00:49:38.368Z,15.80
2018-06-19T00:52:07.013Z,15.70
2018-06-19T00:54:35.477Z,15.80
2018-06-19T00:57:03.912Z,15.70
2018-06-19T01:02:01.172Z,15.70
2018-06-19T01:04:29.590Z,15.70
2018-06-19T01:06:58.035Z,15.70
2018-06-19T01:09:26.503Z,15.70
2018-06-19T01:11:54.959Z,15.80
2018-06-19T01:14:23.405Z,15.80
2018-06-19T01:16:51.852Z,15.70
2018-06-19T01:19:20.346Z,15.70
2018-06-19T01:21:48.794Z,15.60
2018-06-19T01:24:17.241Z,15.60
2018-06-19T01:26:45.640Z,15.60
2018-06-19T01:29:14.061Z,15.60
2018-06-19T01:31:42.509Z,15.60
2018-06-19T01:34:10.949Z,15.60
2018-06-19T01:36:39.389Z,15.60
2018-06-19T01:39:09.526Z,15.40
2018-06-19T01:41:37.965Z,15.40
2018-06-19T01:44:06.800Z,15.40
2018-06-19T01:46:35.234Z,15.50
2018-06-19T01:49:03.668Z,15.40
2018-06-19T01:51:32.148Z,15.30
2018-06-19T01:54:00.578Z,15.30
2018-06-19T01:56:29.049Z,15.40
2018-06-19T01:58:57.477Z,15.30
2018-06-19T02:01:25.904Z,15.30
2018-06-19T02:03:54.374Z,15.40
2018-06-19T02:06:22.902Z,15.40
2018-06-19T02:11:19.478Z,15.40
2018-06-19T02:13:47.924Z,15.40
2018-06-19T02:16:16.363Z,15.40
2018-06-19T02:18:44.782Z,15.40
2018-06-19T02:21:13.249Z,15.40
2018-06-19T02:23:41.683Z,15.40
2018-06-19T02:26:10.087Z,15.30
2018-06-19T02:28:38.529Z,15.20
2018-06-19T02:31:07.060Z,15.20
2018-06-19T02:33:35.506Z,15.30
2018-06-19T02:36:03.939Z,15.30
2018-06-19T02:38:32.373Z,15.30
2018-06-19T02:41:00.825Z,15.30
2018-06-19T02:43:29.260Z,15.30
2018-06-19T02:45:57.727Z,15.30
2018-06-19T02:48:26.182Z,15.30
2018-06-19T02:50:54.625Z,15.30
2018-06-19T02:53:23.070Z,15.30
2018-06-19T02:55:51.585Z,15.20
2018-06-19T02:58:20.043Z,15.20
2018-06-19T03:00:48.480Z,15.20
2018-06-19T03:03:16.889Z,15.20
2018-06-19T03:05:45.353Z,15.10
2018-06-19T03:08:13.827Z,15.20
2018-06-19T03:10:42.276Z,15.20
2018-06-19T03:13:10.737Z,15.20
2018-06-19T03:15:39.186Z,15.20
2018-06-19T03:18:07.670Z,15.10
2018-06-19T03:20:36.173Z,15.10
2018-06-19T03:23:04.642Z,15.10
2018-06-19T03:25:33.113Z,15.00
2018-06-19T03:28:01.570Z,15.10
2018-06-19T03:30:30.025Z,15.10
2018-06-19T03:32:58.469Z,15.10
2018-06-19T03:35:26.954Z,15.10
2018-06-19T03:37:55.377Z,15.10
2018-06-19T03:40:23.788Z,15.20
2018-06-19T03:42:52.237Z,15.20
2018-06-19T03:45:20.691Z,15.20
2018-06-19T03:47:49.171Z,15.20
2018-06-19T03:50:17.647Z,15.20
2018-06-19T03:52:46.095Z,15.30
2018-06-19T03:55:14.558Z,15.30
2018-06-19T03:57:43.050Z,15.30
2018-06-19T04:00:11.631Z,15.30
2018-06-19T04:02:40.110Z,15.30
2018-06-19T04:05:08.569Z,15.30
2018-06-19T04:07:37.089Z,15.30
2018-06-19T04:10:05.532Z,15.30
2018-06-19T04:12:34.054Z,15.40
2018-06-19T04:15:02.547Z,15.40
2018-06-19T04:17:31.017Z,15.50
2018-06-19T04:19:59.820Z,15.50
2018-06-19T04:22:29.462Z,15.50
2018-06-19T04:27:27.753Z,15.60
2018-06-19T04:29:56.344Z,15.70
2018-06-19T04:32:24.860Z,15.70
2018-06-19T04:34:53.377Z,15.80
2018-06-19T04:37:21.915Z,15.80
2018-06-19T04:39:50.467Z,15.80
2018-06-19T04:42:18.990Z,15.90
2018-06-19T04:44:47.535Z,15.90
2018-06-19T04:47:16.015Z,15.90
2018-06-19T04:49:44.543Z,15.80
2018-06-19T04:52:13.033Z,15.90
2018-06-19T04:54:41.571Z,15.90
2018-06-19T04:57:10.048Z,16.00
2018-06-19T05:02:07.187Z,15.90
2018-06-19T05:04:36.654Z,16.00
2018-06-19T05:07:05.216Z,16.00
2018-06-19T05:09:33.837Z,16.00
2018-06-19T05:12:02.477Z,16.10
2018-06-19T05:14:31.046Z,16.00
2018-06-19T05:16:59.727Z,16.10
2018-06-19T05:19:28.491Z,16.20
2018-06-19T05:21:57.127Z,16.30
2018-06-19T05:24:26.327Z,16.40
2018-06-19T05:26:54.949Z,16.40
2018-06-19T05:29:23.613Z,16.50
2018-06-19T05:31:52.312Z,16.60
2018-06-19T05:34:21.154Z,16.70
2018-06-19T05:36:50.581Z,16.70
2018-06-19T05:39:19.235Z,16.80
2018-06-19T05:41:47.978Z,16.90
2018-06-19T05:44:16.841Z,16.90
2018-06-19T05:46:45.492Z,16.90
2018-06-19T05:49:14.165Z,16.90
2018-06-19T05:51:42.881Z,16.90
2018-06-19T05:54:11.535Z,17.00
2018-06-19T05:56:40.060Z,17.20
2018-06-19T05:59:08.801Z,17.40
2018-06-19T06:01:37.310Z,17.50
2018-06-19T06:04:06.438Z,17.60
2018-06-19T06:06:35.424Z,17.60
2018-06-19T06:09:05.650Z,17.70
2018-06-19T06:11:34.222Z,17.80
2018-06-19T06:14:02.846Z,17.90
2018-06-19T06:16:31.427Z,17.80
2018-06-19T06:18:59.986Z,17.90
2018-06-19T06:21:28.527Z,17.90
2018-06-19T06:26:25.427Z,18.00
2018-06-19T06:28:53.956Z,18.10
2018-06-19T06:31:23.237Z,18.20
2018-06-19T06:33:51.991Z,18.10
2018-06-19T06:36:20.546Z,18.30
2018-06-19T06:38:49.084Z,18.20
2018-06-19T06:41:17.640Z,18.30
2018-06-19T06:43:46.321Z,18.50
2018-06-19T06:46:14.911Z,18.60
2018-06-19T06:48:43.560Z,18.60
2018-06-19T06:51:12.154Z,18.60
2018-06-19T06:53:40.687Z,18.70
2018-06-19T06:56:09.243Z,18.70
2018-06-19T06:58:37.800Z,18.80
2018-06-19T07:01:06.800Z,19.00
2018-06-19T07:03:35.273Z,19.20
2018-06-19T07:06:03.857Z,19.30
2018-06-19T07:08:33.228Z,19.40
2018-06-19T07:11:01.833Z,19.50
2018-06-19T07:13:30.376Z,19.30
2018-06-19T07:15:59.065Z,19.60
2018-06-19T07:18:27.622Z,19.60
2018-06-19T07:20:56.209Z,19.80
2018-06-19T07:23:24.800Z,20.10
2018-06-19T07:25:53.599Z,19.80
2018-06-19T07:28:22.347Z,20.10
2018-06-19T07:30:50.907Z,20.40
2018-06-19T07:33:19.415Z,20.30
2018-06-19T07:35:48.122Z,20.50
2018-06-19T07:38:16.789Z,20.70
2018-06-19T07:40:45.464Z,20.60
2018-06-19T07:43:14.042Z,20.40
2018-06-19T07:45:42.652Z,20.30
2018-06-19T07:48:11.204Z,20.50
2018-06-19T07:50:39.743Z,20.30
2018-06-19T07:53:08.269Z,20.30
2018-06-19T07:55:36.792Z,20.00
2018-06-19T07:58:05.529Z,20.30
2018-06-19T08:00:35.095Z,20.40
2018-06-19T08:03:03.630Z,20.60
2018-06-19T08:05:32.262Z,20.70
2018-06-19T08:08:00.802Z,21.10
2018-06-19T08:10:29.264Z,21.80
2018-06-19T08:12:57.779Z,22.40
2018-06-19T08:15:26.304Z,22.40
2018-06-19T08:17:54.850Z,23.60
2018-06-19T08:20:23.434Z,24.40
2018-06-19T08:22:52.087Z,24.30
2018-06-19T08:25:20.595Z,25.60
2018-06-19T08:27:49.370Z,27.00
2018-06-19T08:30:17.887Z,27.30
2018-06-19T08:32:46.458Z,28.50
2018-06-19T08:35:15.018Z,28.70
2018-06-19T08:37:43.566Z,28.40
2018-06-19T08:40:12.273Z,27.60
2018-06-19T08:42:40.825Z,27.40
2018-06-19T08:45:09.333Z,27.10
2018-06-19T08:47:37.822Z,25.30
2018-06-19T08:50:06.525Z,25.30
2018-06-19T08:52:34.975Z,26.60
2018-06-19T08:55:03.673Z,27.20
2018-06-19T08:57:32.138Z,27.60
2018-06-19T09:00:00.580Z,27.60
2018-06-19T09:02:29.100Z,28.20
2018-06-19T09:04:57.597Z,28.70
2018-06-19T09:07:26.111Z,28.80
2018-06-19T09:09:54.657Z,27.90
2018-06-19T09:12:23.144Z,28.00
2018-06-19T09:14:51.693Z,27.80
2018-06-19T09:17:20.200Z,27.60
2018-06-19T09:19:48.650Z,26.30
2018-06-19T09:22:17.243Z,26.20
2018-06-19T09:24:45.736Z,26.60
2018-06-19T09:27:14.249Z,27.20
2018-06-19T09:29:42.728Z,28.30
2018-06-19T09:32:11.213Z,28.40
2018-06-19T09:34:39.689Z,29.20
2018-06-19T09:37:08.214Z,28.80
2018-06-19T09:39:36.801Z,29.40
2018-06-19T09:42:05.295Z,30.80
2018-06-19T09:44:33.788Z,30.80
2018-06-19T09:47:02.264Z,30.40
2018-06-19T09:49:30.787Z,29.80
2018-06-19T09:51:59.296Z,29.90
2018-06-19T09:54:27.781Z,28.70
2018-06-19T09:56:56.264Z,28.50
2018-06-19T09:59:24.925Z,30.30
2018-06-19T10:01:53.426Z,30.60
2018-06-19T10:04:21.943Z,31.30
2018-06-19T10:06:50.512Z,31.90
2018-06-19T10:09:19.003Z,31.90
2018-06-19T10:11:47.573Z,32.10
2018-06-19T10:14:16.124Z,32.40
2018-06-19T10:16:44.758Z,32.20
2018-06-19T10:19:13.273Z,32.10
2018-06-19T10:21:41.963Z,32.30
2018-06-19T10:24:10.453Z,32.40
2018-06-19T10:26:38.990Z,32.60
2018-06-19T10:29:07.599Z,31.70
2018-06-19T10:31:36.140Z,31.30
2018-06-19T10:34:04.648Z,31.40
2018-06-19T10:36:33.259Z,31.30
2018-06-19T10:39:01.717Z,30.90
2018-06-19T10:41:30.225Z,30.50
2018-06-19T10:43:59.281Z,30.20
2018-06-19T10:46:27.766Z,30.10
2018-06-19T10:48:56.280Z,30.30
2018-06-19T10:51:24.824Z,30.00
2018-06-19T10:53:53.321Z,30.00
2018-06-19T10:56:21.842Z,29.50
2018-06-19T10:58:50.294Z,29.30
2018-06-19T11:03:46.931Z,28.90
2018-06-19T11:06:15.452Z,29.10
2018-06-19T11:08:43.914Z,29.20
2018-06-19T11:11:12.420Z,28.90
2018-06-19T11:13:40.973Z,28.50
2018-06-19T11:16:09.434Z,28.30
2018-06-19T11:18:37.918Z,28.60
2018-06-19T11:21:07.463Z,28.80
2018-06-19T11:23:36.402Z,28.80
2018-06-19T11:26:04.859Z,28.60
2018-06-19T11:28:33.330Z,28.90
2018-06-19T11:31:01.752Z,29.10
2018-06-19T11:33:30.218Z,29.10
2018-06-19T11:35:58.728Z,29.30
2018-06-19T11:38:27.292Z,29.80
2018-06-19T11:40:55.777Z,29.90
2018-06-19T11:43:24.314Z,30.40
2018-06-19T11:45:52.816Z,30.50
2018-06-19T11:48:21.315Z,30.20
2018-06-19T11:50:49.892Z,30.20
2018-06-19T11:53:18.375Z,30.00
2018-06-19T11:55:46.990Z,30.10
2018-06-19T11:58:15.519Z,30.20
2018-06-19T12:00:44.220Z,30.20
2018-06-19T12:03:12.722Z,30.20
2018-06-19T12:05:44.070Z,30.30
2018-06-19T12:08:12.543Z,30.10
2018-06-19T12:10:40.984Z,30.10
2018-06-19T12:13:09.469Z,30.40
2018-06-19T12:15:37.947Z,30.90
2018-06-19T12:18:06.677Z,31.40
2018-06-19T12:20:35.224Z,31.10
2018-06-19T12:23:03.658Z,31.50
2018-06-19T12:25:32.164Z,31.70
2018-06-19T12:28:00.640Z,32.00
2018-06-19T12:30:29.064Z,32.10
2018-06-19T12:32:57.549Z,32.20
2018-06-19T12:35:26.043Z,32.80
2018-06-19T12:37:54.530Z,31.10
2018-06-19T12:40:22.982Z,31.20
2018-06-19T12:42:51.464Z,31.60
2018-06-19T12:45:19.902Z,31.70
2018-06-19T12:47:48.370Z,31.90
2018-06-19T12:51:39.825Z,31.50
2018-06-19T12:55:18.856Z,30.90
2018-06-19T12:57:48.664Z,31.70
2018-06-19T13:00:17.147Z,31.70
2018-06-19T13:02:56.876Z,31.20
2018-06-19T13:05:36.608Z,31.30
2018-06-19T13:08:05.105Z,31.30
2018-06-19T13:10:33.561Z,31.30
2018-06-19T13:13:23.482Z,31.40
2018-06-19T13:15:52.960Z,31.40
2018-06-19T13:20:55.620Z,30.30
2018-06-19T13:23:24.049Z,29.70
2018-06-19T13:25:52.614Z,29.00
2018-06-19T13:31:01.397Z,28.80
2018-06-19T13:33:29.847Z,28.70
2018-06-19T13:35:58.332Z,28.50
2018-06-19T13:38:26.770Z,28.10
2018-06-19T13:41:11.174Z,28.10
2018-06-19T13:43:50.898Z,28.00
2018-06-19T13:46:19.413Z,28.10
2018-06-19T13:48:47.875Z,28.90
2018-06-19T13:51:16.338Z,29.90
2018-06-19T13:53:45.255Z,30.80
2018-06-19T13:57:32.089Z,31.50
2018-06-19T14:00:01.822Z,32.10
2018-06-19T14:02:30.317Z,33.20
2018-06-19T14:04:59.232Z,33.70
2018-06-19T14:07:28.582Z,34.30
2018-06-19T14:10:06.441Z,34.50
2018-06-19T14:12:58.216Z,34.90
2018-06-19T14:15:28.141Z,34.80
2018-06-19T14:17:57.081Z,35.20
2018-06-19T14:20:25.561Z,35.00
2018-06-19T14:22:54.067Z,35.50
2018-06-19T14:25:22.835Z,35.80
2018-06-19T14:27:51.893Z,36.40
2018-06-19T14:30:20.432Z,36.60
2018-06-19T14:32:49.387Z,36.60
2018-06-19T14:35:18.402Z,36.40
2018-06-19T14:37:46.905Z,35.20
2018-06-19T14:40:15.771Z,33.40
2018-06-19T14:42:44.280Z,33.40
2018-06-19T14:45:13.030Z,33.40
2018-06-19T14:47:42.161Z,33.40
2018-06-19T14:50:10.927Z,33.80
2018-06-19T14:52:39.480Z,33.80
2018-06-19T14:55:09.000Z,33.50
2018-06-19T14:57:37.600Z,32.20
2018-06-19T15:00:07.317Z,32.20
2018-06-19T15:02:35.810Z,31.60
2018-06-19T15:05:04.706Z,30.90
2018-06-19T15:07:42.272Z,30.30
2018-06-19T15:10:13.357Z,29.90
2018-06-19T15:12:43.432Z,29.50
2018-06-19T15:15:11.956Z,29.60
2018-06-19T15:17:40.441Z,29.30
2018-06-19T15:20:09.444Z,29.40
2018-06-19T15:22:37.947Z,28.70
2018-06-19T15:25:06.365Z,28.80
2018-06-19T15:27:34.804Z,28.80
2018-06-19T15:30:03.311Z,28.70
2018-06-19T15:32:31.819Z,27.80
2018-06-19T15:35:00.310Z,27.60
2018-06-19T15:37:28.758Z,27.70
2018-06-19T15:39:57.204Z,27.70
2018-06-19T15:42:25.732Z,27.80
2018-06-19T15:44:54.678Z,27.70
2018-06-19T15:47:23.150Z,27.80
2018-06-19T15:49:51.621Z,27.90
2018-06-19T15:52:20.042Z,27.80
2018-06-19T15:54:48.485Z,27.90
2018-06-19T15:57:16.933Z,27.80
2018-06-19T15:59:45.412Z,27.70
2018-06-19T16:02:13.888Z,27.70
2018-06-19T16:04:42.696Z,27.50
2018-06-19T16:07:11.189Z,27.10
2018-06-19T16:09:39.656Z,27.00
2018-06-19T16:12:08.131Z,27.00
2018-06-19T16:14:36.556Z,27.10
2018-06-19T16:17:05.044Z,27.10
2018-06-19T16:19:33.547Z,27.00
2018-06-19T16:22:01.958Z,26.80
2018-06-19T16:24:30.429Z,26.80
2018-06-19T16:26:58.862Z,26.40
2018-06-19T16:29:27.350Z,26.50
2018-06-19T16:31:55.992Z,26.40
2018-06-19T16:34:24.434Z,26.20
2018-06-19T16:36:52.887Z,25.90
2018-06-19T16:39:21.363Z,26.00
2018-06-19T16:41:50.096Z,25.90
2018-06-19T16:44:18.558Z,25.90
2018-06-19T16:46:47.044Z,25.90
2018-06-19T16:49:15.526Z,25.60
2018-06-19T16:51:43.958Z,25.60
2018-06-19T16:54:12.417Z,25.80
2018-06-19T16:56:40.858Z,25.70
2018-06-19T16:59:09.353Z,25.70
2018-06-19T17:01:37.845Z,25.70
2018-06-19T17:04:06.297Z,25.30
2018-06-19T17:06:35.279Z,25.30
2018-06-19T17:09:04.884Z,25.30
2018-06-19T17:11:33.393Z,25.10
2018-06-19T17:14:01.851Z,25.20
2018-06-19T17:16:30.324Z,25.10
2018-06-19T17:18:58.870Z,25.00
2018-06-19T17:21:27.459Z,25.00
2018-06-19T17:23:55.912Z,24.90
2018-06-19T17:26:24.444Z,24.80
2018-06-19T17:28:52.997Z,24.90
2018-06-19T17:31:21.515Z,24.80
2018-06-19T17:33:50.153Z,24.70
2018-06-19T17:36:18.760Z,24.70
2018-06-19T17:38:47.254Z,24.70
2018-06-19T17:41:15.854Z,24.60
2018-06-19T17:43:44.447Z,24.50
2018-06-19T17:46:13.034Z,24.50
2018-06-19T17:51:10.206Z,24.40
2018-06-19T17:53:38.749Z,24.30
2018-06-19T17:56:07.570Z,24.30
2018-06-19T17:58:36.173Z,24.20
2018-06-19T18:01:06.638Z,24.20
2018-06-19T18:03:35.266Z,24.20
2018-06-19T18:06:04.521Z,24.00
2018-06-19T18:08:33.692Z,23.90
2018-06-19T18:11:03.711Z,23.90
2018-06-19T18:13:32.304Z,23.90
2018-06-19T18:16:02.448Z,23.80
2018-06-19T18:18:31.283Z,23.70
2018-06-19T18:21:00.016Z,23.60
2018-06-19T18:23:28.817Z,23.60
2018-06-19T18:25:57.522Z,23.60
2018-06-19T18:28:26.234Z,23.50
2018-06-19T18:30:55.131Z,23.30
2018-06-19T18:33:24.069Z,23.20
2018-06-19T18:35:53.070Z,23.00
2018-06-19T18:38:23.893Z,23.00
2018-06-19T18:40:52.547Z,23.10
2018-06-19T18:43:21.159Z,23.00
2018-06-19T18:45:49.936Z,23.00
2018-06-19T18:48:18.637Z,23.00
2018-06-19T18:50:47.220Z,22.90
2018-06-19T18:53:15.819Z,22.90
2018-06-19T18:55:44.412Z,22.90
2018-06-19T18:58:13.168Z,22.80
2018-06-19T19:00:41.790Z,22.70
2018-06-19T19:03:10.590Z,22.60
2018-06-19T19:05:40.323Z,22.60
2018-06-19T19:08:13.098Z,22.40
2018-06-19T19:10:46.944Z,22.40
2018-06-19T19:13:15.489Z,22.30
2018-06-19T19:15:49.424Z,22.30
2018-06-19T19:18:23.420Z,22.20
2018-06-19T19:20:52.119Z,22.20
2018-06-19T19:23:20.950Z,22.10
2018-06-19T19:28:22.947Z,21.90
2018-06-19T19:30:51.502Z,21.90
2018-06-19T19:33:20.077Z,21.80
2018-06-19T19:35:48.792Z,21.70
2018-06-19T19:38:22.675Z,21.70
2018-06-19T19:40:51.128Z,21.60
2018-06-19T19:43:19.745Z,21.60
2018-06-19T19:45:48.195Z,21.50
2018-06-19T19:48:21.916Z,21.40
2018-06-19T19:50:50.345Z,21.30
2018-06-19T19:53:18.834Z,21.20
2018-06-19T19:55:52.687Z,21.20
2018-06-19T19:58:26.341Z,21.10
2018-06-19T20:00:54.784Z,21.00
2018-06-19T20:03:23.239Z,20.90
2018-06-19T20:05:52.259Z,20.90
2018-06-19T20:08:22.508Z,20.80
2018-06-19T20:10:51.706Z,20.70
2018-06-19T20:13:20.579Z,20.60
2018-06-19T20:15:49.481Z,20.60
2018-06-19T20:18:18.130Z,20.50
2018-06-19T20:20:46.586Z,20.50
2018-06-19T20:23:15.063Z,20.40
2018-06-19T20:25:43.568Z,20.20
2018-06-19T20:28:12.055Z,20.10
2018-06-19T20:30:40.538Z,20.10
2018-06-19T20:33:09.048Z,20.10
2018-06-19T20:35:37.599Z,20.00
2018-06-19T20:38:06.082Z,19.90
2018-06-19T20:40:34.716Z,19.90
2018-06-19T20:43:03.154Z,19.80
2018-06-19T20:45:31.611Z,19.80
2018-06-19T20:48:00.126Z,19.70
2018-06-19T20:50:28.567Z,19.70
2018-06-19T20:52:57.026Z,19.70
2018-06-19T20:55:25.652Z,19.60
2018-06-19T20:57:54.166Z,19.50
2018-06-19T21:00:22.648Z,19.50
2018-06-19T21:02:51.139Z,19.40
2018-06-19T21:05:19.612Z,19.30
2018-06-19T21:07:48.029Z,19.30
2018-06-19T21:10:16.553Z,19.20
2018-06-19T21:12:45.002Z,19.20
2018-06-19T21:15:13.432Z,19.10
2018-06-19T21:20:10.092Z,19.10
2018-06-19T21:22:38.589Z,19.00
2018-06-19T21:25:07.071Z,19.00
2018-06-19T21:27:36.234Z,18.90
2018-06-19T21:30:05.835Z,18.80
2018-06-19T21:32:34.331Z,18.70
2018-06-19T21:37:31.307Z,18.70
2018-06-19T21:39:59.745Z,18.70
2018-06-19T21:42:28.233Z,18.60
2018-06-19T21:44:56.858Z,18.50
2018-06-19T21:47:25.316Z,18.50
2018-06-19T21:49:53.793Z,18.50
2018-06-19T21:52:22.366Z,18.40
2018-06-19T21:54:52.136Z,18.30
2018-06-19T21:57:20.877Z,18.30
2018-06-19T21:59:49.422Z,18.30
2018-06-19T22:02:34.542Z,18.20
2018-06-19T22:05:04.454Z,18.20
2018-06-19T22:07:33.644Z,18.10
2018-06-19T22:10:02.103Z,18.10
2018-06-19T22:12:30.550Z,18.00
2018-06-19T22:14:59.018Z,18.00
2018-06-19T22:17:28.206Z,17.90
2018-06-19T22:19:56.670Z,17.90
2018-06-19T22:22:25.098Z,17.80
2018-06-19T22:24:53.612Z,17.80
2018-06-19T22:27:22.079Z,17.80
2018-06-19T22:29:50.558Z,17.70
2018-06-19T22:32:19.010Z,17.70
2018-06-19T22:34:47.447Z,17.60
2018-06-19T22:37:16.009Z,17.60
2018-06-19T22:39:44.462Z,17.60
2018-06-19T22:42:12.934Z,17.50
2018-06-19T22:44:41.385Z,17.50
2018-06-19T22:47:09.884Z,17.50
2018-06-19T22:49:38.388Z,17.40
2018-06-19T22:52:06.820Z,17.40
2018-06-19T22:54:35.216Z,17.30
2018-06-19T22:57:03.675Z,17.30
2018-06-19T22:59:32.144Z,17.20
2018-06-19T23:02:00.559Z,17.20
2018-06-19T23:04:29.009Z,17.20
2018-06-19T23:06:57.480Z,17.20
2018-06-19T23:09:26.316Z,17.10
2018-06-19T23:11:54.736Z,17.10
2018-06-19T23:14:23.183Z,17.10
2018-06-19T23:16:51.650Z,17.00
2018-06-19T23:19:20.070Z,17.00
2018-06-19T23:21:48.514Z,16.90
2018-06-19T23:24:17.027Z,16.90
2018-06-19T23:26:45.490Z,16.90
2018-06-19T23:29:14.587Z,16.90
2018-06-19T23:31:43.049Z,16.90
2018-06-19T23:34:11.511Z,16.80
2018-06-19T23:36:40.074Z,16.80
2018-06-19T23:39:10.018Z,16.70
2018-06-19T23:41:38.521Z,16.70
2018-06-19T23:44:07.011Z,16.60
2018-06-19T23:46:35.463Z,16.60
2018-06-19T23:49:03.919Z,16.60
2018-06-19T23:51:32.558Z,16.50
2018-06-19T23:54:04.141Z,16.50
2018-06-19T23:56:32.691Z,16.50
2018-06-19T23:59:01.171Z,16.40
